sensor_id;sensor_type;location;lat;lon;timestamp;temperature;humidity
14182;DHT22;7171;50.936;6.764;2023-02-13T00:00:21;10.50;99.90
14182;DHT22;7171;50.936;6.764;2023-02-13T00:02:49;10.50;99.90
14182;DHT22;7171;50.936;6.764;2023-02-13T00:05:17;10.50;99.90
14182;DHT22;7171;50.936;6.764;2023-02-13T00:07:44;10.50;99.90
14182;DHT22;7171;50.936;6.764;2023-02-13T00:10:11;10.40;99.90
14182;DHT22;7171;50.936;6.764;2023-02-13T00:12:38;10.50;99.90
14182;DHT22;7171;50.936;6.764;2023-02-13T00:15:05;10.50;99.90
14182;DHT22;7171;50.936;6.764;2023-02-13T00:17:33;10.50;99.90
14182;DHT22;7171;50.936;6.764;2023-02-13T00:20:00;10.50;99.90
14182;DHT22;7171;50.936;6.764;2023-02-13T00:22:28;10.50;99.90
14182;DHT22;7171;50.936;6.764;2023-02-13T00:24:54;10.50;99.90
14182;DHT22;7171;50.936;6.764;2023-02-13T00:27:21;10.50;99.90
14182;DHT22;7171;50.936;6.764;2023-02-13T00:29:48;10.50;99.90
14182;DHT22;7171;50.936;6.764;2023-02-13T00:32:15;10.50;99.90
14182;DHT22;7171;50.936;6.764;2023-02-13T00:34:41;10.50;99.90
14182;DHT22;7171;50.936;6.764;2023-02-13T00:37:09;10.50;99.90
14182;DHT22;7171;50.936;6.764;2023-02-13T00:39:37;10.50;99.90
14182;DHT22;7171;50.936;6.764;2023-02-13T00:42:04;10.50;99.90
14182;DHT22;7171;50.936;6.764;2023-02-13T00:44:31;10.50;99.90
14182;DHT22;7171;50.936;6.764;2023-02-13T00:46:58;10.50;99.90
14182;DHT22;7171;50.936;6.764;2023-02-13T00:49:25;10.50;99.90
14182;DHT22;7171;50.936;6.764;2023-02-13T00:51:51;10.50;99.90
14182;DHT22;7171;50.936;6.764;2023-02-13T00:54:18;10.50;99.90
14182;DHT22;7171;50.936;6.764;2023-02-13T00:56:47;10.50;99.90
14182;DHT22;7171;50.936;6.764;2023-02-13T00:59:14;10.50;99.90
14182;DHT22;7171;50.936;6.764;2023-02-13T01:01:42;10.50;99.90
14182;DHT22;7171;50.936;6.764;2023-02-13T01:04:09;10.50;99.90
14182;DHT22;7171;50.936;6.764;2023-02-13T01:06:36;10.50;99.90
14182;DHT22;7171;50.936;6.764;2023-02-13T01:09:03;10.50;99.90
14182;DHT22;7171;50.936;6.764;2023-02-13T01:11:30;10.50;99.90
14182;DHT22;7171;50.936;6.764;2023-02-13T01:13:58;10.50;99.90
14182;DHT22;7171;50.936;6.764;2023-02-13T01:16:25;10.50;99.90
14182;DHT22;7171;50.936;6.764;2023-02-13T01:18:52;10.50;99.90
14182;DHT22;7171;50.936;6.764;2023-02-13T01:21:20;10.50;99.90
14182;DHT22;7171;50.936;6.764;2023-02-13T01:23:47;10.50;99.90
14182;DHT22;7171;50.936;6.764;2023-02-13T01:26:16;10.40;99.90
14182;DHT22;7171;50.936;6.764;2023-02-13T01:28:43;10.40;99.90
14182;DHT22;7171;50.936;6.764;2023-02-13T01:31:12;10.40;99.90
14182;DHT22;7171;50.936;6.764;2023-02-13T01:33:38;10.40;99.90
14182;DHT22;7171;50.936;6.764;2023-02-13T01:36:07;10.40;99.90
14182;DHT22;7171;50.936;6.764;2023-02-13T01:38:35;10.40;99.90
14182;DHT22;7171;50.936;6.764;2023-02-13T01:41:01;10.40;99.90
14182;DHT22;7171;50.936;6.764;2023-02-13T01:43:44;10.40;99.90
14182;DHT22;7171;50.936;6.764;2023-02-13T01:46:13;10.40;99.90
14182;DHT22;7171;50.936;6.764;2023-02-13T01:48:41;10.40;99.90
14182;DHT22;7171;50.936;6.764;2023-02-13T01:51:12;10.40;99.90
14182;DHT22;7171;50.936;6.764;2023-02-13T01:53:42;10.40;99.90
14182;DHT22;7171;50.936;6.764;2023-02-13T01:56:14;10.40;99.90
14182;DHT22;7171;50.936;6.764;2023-02-13T01:58:45;10.40;99.90
14182;DHT22;7171;50.936;6.764;2023-02-13T02:01:15;10.40;99.90
14182;DHT22;7171;50.936;6.764;2023-02-13T02:03:45;10.40;99.90
14182;DHT22;7171;50.936;6.764;2023-02-13T02:06:17;10.40;99.90
14182;DHT22;7171;50.936;6.764;2023-02-13T02:08:46;10.40;99.90
14182;DHT22;7171;50.936;6.764;2023-02-13T02:11:19;10.40;99.90
14182;DHT22;7171;50.936;6.764;2023-02-13T02:13:48;10.40;99.90
14182;DHT22;7171;50.936;6.764;2023-02-13T02:16:16;10.40;99.90
14182;DHT22;7171;50.936;6.764;2023-02-13T02:18:43;10.40;99.90
14182;DHT22;7171;50.936;6.764;2023-02-13T02:21:44;10.40;99.90
14182;DHT22;7171;50.936;6.764;2023-02-13T02:24:53;10.40;99.90
14182;DHT22;7171;50.936;6.764;2023-02-13T02:28:03;10.40;99.90
14182;DHT22;7171;50.936;6.764;2023-02-13T02:30:51;10.40;99.90
14182;DHT22;7171;50.936;6.764;2023-02-13T02:33:30;10.40;99.90
14182;DHT22;7171;50.936;6.764;2023-02-13T02:36:12;10.40;99.90
14182;DHT22;7171;50.936;6.764;2023-02-13T02:39:01;10.30;99.90
14182;DHT22;7171;50.936;6.764;2023-02-13T02:41:35;10.30;99.90
14182;DHT22;7171;50.936;6.764;2023-02-13T02:44:14;10.30;99.90
14182;DHT22;7171;50.936;6.764;2023-02-13T02:46:54;10.20;99.90
14182;DHT22;7171;50.936;6.764;2023-02-13T02:49:40;10.30;99.90
14182;DHT22;7171;50.936;6.764;2023-02-13T02:52:29;10.30;99.90
14182;DHT22;7171;50.936;6.764;2023-02-13T02:55:03;10.30;99.90
14182;DHT22;7171;50.936;6.764;2023-02-13T02:57:35;10.30;99.90
14182;DHT22;7171;50.936;6.764;2023-02-13T03:00:23;10.30;99.90
14182;DHT22;7171;50.936;6.764;2023-02-13T03:03:12;10.30;99.90
14182;DHT22;7171;50.936;6.764;2023-02-13T03:06:00;10.30;99.90
14182;DHT22;7171;50.936;6.764;2023-02-13T03:08:36;10.30;99.90
14182;DHT22;7171;50.936;6.764;2023-02-13T03:11:21;10.30;99.90
14182;DHT22;7171;50.936;6.764;2023-02-13T03:14:06;10.20;99.90
14182;DHT22;7171;50.936;6.764;2023-02-13T03:16:34;10.20;99.90
14182;DHT22;7171;50.936;6.764;2023-02-13T03:19:24;10.20;99.90
14182;DHT22;7171;50.936;6.764;2023-02-13T03:22:23;10.20;99.90
14182;DHT22;7171;50.936;6.764;2023-02-13T03:24:59;10.20;99.90
14182;DHT22;7171;50.936;6.764;2023-02-13T03:27:37;10.20;99.90
14182;DHT22;7171;50.936;6.764;2023-02-13T03:30:34;10.20;99.90
14182;DHT22;7171;50.936;6.764;2023-02-13T03:33:18;10.20;99.90
14182;DHT22;7171;50.936;6.764;2023-02-13T03:35:51;10.20;99.90
14182;DHT22;7171;50.936;6.764;2023-02-13T03:38:45;10.20;99.90
14182;DHT22;7171;50.936;6.764;2023-02-13T03:41:17;10.20;99.90
14182;DHT22;7171;50.936;6.764;2023-02-13T03:43:54;10.10;99.90
14182;DHT22;7171;50.936;6.764;2023-02-13T03:46:23;10.10;99.90
14182;DHT22;7171;50.936;6.764;2023-02-13T03:48:52;10.10;99.90
14182;DHT22;7171;50.936;6.764;2023-02-13T03:51:43;10.10;99.90
14182;DHT22;7171;50.936;6.764;2023-02-13T03:54:16;10.10;99.90
14182;DHT22;7171;50.936;6.764;2023-02-13T03:56:46;10.10;99.90
14182;DHT22;7171;50.936;6.764;2023-02-13T03:59:34;10.10;99.90
14182;DHT22;7171;50.936;6.764;2023-02-13T04:02:07;10.10;99.90
14182;DHT22;7171;50.936;6.764;2023-02-13T04:04:41;10.10;99.90
14182;DHT22;7171;50.936;6.764;2023-02-13T04:07:11;10.00;99.90
14182;DHT22;7171;50.936;6.764;2023-02-13T04:09:55;10.00;99.90
14182;DHT22;7171;50.936;6.764;2023-02-13T04:12:28;10.00;99.90
14182;DHT22;7171;50.936;6.764;2023-02-13T04:14:58;10.00;99.90
14182;DHT22;7171;50.936;6.764;2023-02-13T04:17:31;10.00;99.90
14182;DHT22;7171;50.936;6.764;2023-02-13T04:19:59;10.00;99.90
14182;DHT22;7171;50.936;6.764;2023-02-13T04:22:26;10.00;99.90
14182;DHT22;7171;50.936;6.764;2023-02-13T04:24:53;9.90;99.90
14182;DHT22;7171;50.936;6.764;2023-02-13T04:27:21;9.80;99.90
14182;DHT22;7171;50.936;6.764;2023-02-13T04:29:50;9.90;99.90
14182;DHT22;7171;50.936;6.764;2023-02-13T04:32:17;9.80;99.90
14182;DHT22;7171;50.936;6.764;2023-02-13T04:34:44;9.80;99.90
14182;DHT22;7171;50.936;6.764;2023-02-13T04:37:11;9.80;99.90
14182;DHT22;7171;50.936;6.764;2023-02-13T04:39:37;9.80;99.90
14182;DHT22;7171;50.936;6.764;2023-02-13T04:42:04;9.80;99.90
14182;DHT22;7171;50.936;6.764;2023-02-13T04:44:32;9.80;99.90
14182;DHT22;7171;50.936;6.764;2023-02-13T04:46:59;9.80;99.90
14182;DHT22;7171;50.936;6.764;2023-02-13T04:49:26;9.80;99.90
14182;DHT22;7171;50.936;6.764;2023-02-13T04:51:52;9.70;99.90
14182;DHT22;7171;50.936;6.764;2023-02-13T04:54:19;9.70;99.90
14182;DHT22;7171;50.936;6.764;2023-02-13T04:56:46;9.70;99.90
14182;DHT22;7171;50.936;6.764;2023-02-13T04:59:13;9.70;99.90
14182;DHT22;7171;50.936;6.764;2023-02-13T05:01:41;9.70;99.90
14182;DHT22;7171;50.936;6.764;2023-02-13T05:04:08;9.70;99.90
14182;DHT22;7171;50.936;6.764;2023-02-13T05:06:35;9.60;99.90
14182;DHT22;7171;50.936;6.764;2023-02-13T05:09:03;9.60;99.90
14182;DHT22;7171;50.936;6.764;2023-02-13T05:11:29;9.60;99.90
14182;DHT22;7171;50.936;6.764;2023-02-13T05:13:56;9.60;99.90
14182;DHT22;7171;50.936;6.764;2023-02-13T05:16:23;9.60;99.90
14182;DHT22;7171;50.936;6.764;2023-02-13T05:18:51;9.60;99.90
14182;DHT22;7171;50.936;6.764;2023-02-13T05:21:20;9.60;99.90
14182;DHT22;7171;50.936;6.764;2023-02-13T05:24:13;9.60;99.90
14182;DHT22;7171;50.936;6.764;2023-02-13T05:26:39;9.50;99.90
14182;DHT22;7171;50.936;6.764;2023-02-13T05:29:08;9.40;99.90
14182;DHT22;7171;50.936;6.764;2023-02-13T05:31:44;9.40;99.90
14182;DHT22;7171;50.936;6.764;2023-02-13T05:34:12;9.40;99.90
14182;DHT22;7171;50.936;6.764;2023-02-13T05:36:39;9.30;99.90
14182;DHT22;7171;50.936;6.764;2023-02-13T05:39:06;9.50;99.90
14182;DHT22;7171;50.936;6.764;2023-02-13T05:41:33;9.40;99.90
14182;DHT22;7171;50.936;6.764;2023-02-13T05:44:00;9.40;99.90
14182;DHT22;7171;50.936;6.764;2023-02-13T05:46:26;9.40;99.90
14182;DHT22;7171;50.936;6.764;2023-02-13T05:48:53;9.50;99.90
14182;DHT22;7171;50.936;6.764;2023-02-13T05:51:21;9.40;99.90
14182;DHT22;7171;50.936;6.764;2023-02-13T05:53:48;9.50;99.90
14182;DHT22;7171;50.936;6.764;2023-02-13T05:56:15;9.30;99.90
14182;DHT22;7171;50.936;6.764;2023-02-13T05:58:42;9.20;99.90
14182;DHT22;7171;50.936;6.764;2023-02-13T06:01:09;9.30;99.90
14182;DHT22;7171;50.936;6.764;2023-02-13T06:03:36;9.20;99.90
14182;DHT22;7171;50.936;6.764;2023-02-13T06:06:04;9.20;99.90
14182;DHT22;7171;50.936;6.764;2023-02-13T06:08:33;9.10;99.90
14182;DHT22;7171;50.936;6.764;2023-02-13T06:10:59;9.20;99.90
14182;DHT22;7171;50.936;6.764;2023-02-13T06:13:26;9.20;99.90
14182;DHT22;7171;50.936;6.764;2023-02-13T06:15:53;9.10;99.90
14182;DHT22;7171;50.936;6.764;2023-02-13T06:18:20;9.10;99.90
14182;DHT22;7171;50.936;6.764;2023-02-13T06:20:47;9.10;99.90
14182;DHT22;7171;50.936;6.764;2023-02-13T06:23:13;9.10;99.90
14182;DHT22;7171;50.936;6.764;2023-02-13T06:25:42;9.10;99.90
14182;DHT22;7171;50.936;6.764;2023-02-13T06:28:08;9.10;99.90
14182;DHT22;7171;50.936;6.764;2023-02-13T06:30:35;9.10;99.90
14182;DHT22;7171;50.936;6.764;2023-02-13T06:33:02;9.10;99.90
14182;DHT22;7171;50.936;6.764;2023-02-13T06:35:29;9.10;99.90
14182;DHT22;7171;50.936;6.764;2023-02-13T06:37:55;9.10;99.90
14182;DHT22;7171;50.936;6.764;2023-02-13T06:40:22;9.10;99.90
14182;DHT22;7171;50.936;6.764;2023-02-13T06:42:50;9.10;99.90
14182;DHT22;7171;50.936;6.764;2023-02-13T06:45:17;9.10;99.90
14182;DHT22;7171;50.936;6.764;2023-02-13T06:47:45;9.10;99.90
14182;DHT22;7171;50.936;6.764;2023-02-13T06:50:14;9.00;99.90
14182;DHT22;7171;50.936;6.764;2023-02-13T06:52:45;9.00;99.90
14182;DHT22;7171;50.936;6.764;2023-02-13T06:55:12;9.00;99.90
14182;DHT22;7171;50.936;6.764;2023-02-13T06:57:39;9.00;99.90
14182;DHT22;7171;50.936;6.764;2023-02-13T07:00:09;9.00;99.90
14182;DHT22;7171;50.936;6.764;2023-02-13T07:02:38;9.00;99.90
14182;DHT22;7171;50.936;6.764;2023-02-13T07:05:05;9.00;99.90
14182;DHT22;7171;50.936;6.764;2023-02-13T07:07:32;8.90;99.90
14182;DHT22;7171;50.936;6.764;2023-02-13T07:09:59;8.90;99.90
14182;DHT22;7171;50.936;6.764;2023-02-13T07:12:26;8.90;99.90
14182;DHT22;7171;50.936;6.764;2023-02-13T07:14:53;8.90;99.90
14182;DHT22;7171;50.936;6.764;2023-02-13T07:17:21;8.90;99.90
14182;DHT22;7171;50.936;6.764;2023-02-13T07:19:47;8.90;99.90
14182;DHT22;7171;50.936;6.764;2023-02-13T07:22:14;8.90;99.90
14182;DHT22;7171;50.936;6.764;2023-02-13T07:24:41;8.90;99.90
14182;DHT22;7171;50.936;6.764;2023-02-13T07:27:08;8.80;99.90
14182;DHT22;7171;50.936;6.764;2023-02-13T07:29:35;8.80;99.90
14182;DHT22;7171;50.936;6.764;2023-02-13T07:32:02;8.80;99.90
14182;DHT22;7171;50.936;6.764;2023-02-13T07:34:31;8.80;99.90
14182;DHT22;7171;50.936;6.764;2023-02-13T07:36:57;8.80;99.90
14182;DHT22;7171;50.936;6.764;2023-02-13T07:39:24;8.80;99.90
14182;DHT22;7171;50.936;6.764;2023-02-13T07:41:51;8.80;99.90
14182;DHT22;7171;50.936;6.764;2023-02-13T07:44:18;8.80;99.90
14182;DHT22;7171;50.936;6.764;2023-02-13T07:46:44;8.70;99.90
14182;DHT22;7171;50.936;6.764;2023-02-13T07:49:11;8.80;99.90
14182;DHT22;7171;50.936;6.764;2023-02-13T07:51:39;8.80;99.90
14182;DHT22;7171;50.936;6.764;2023-02-13T07:54:06;8.90;99.90
14182;DHT22;7171;50.936;6.764;2023-02-13T07:56:32;8.90;99.90
14182;DHT22;7171;50.936;6.764;2023-02-13T07:58:59;8.90;99.90
14182;DHT22;7171;50.936;6.764;2023-02-13T08:01:26;8.90;99.90
14182;DHT22;7171;50.936;6.764;2023-02-13T08:03:53;8.90;99.90
14182;DHT22;7171;50.936;6.764;2023-02-13T08:06:20;8.90;99.90
14182;DHT22;7171;50.936;6.764;2023-02-13T08:08:48;8.90;99.90
14182;DHT22;7171;50.936;6.764;2023-02-13T08:11:36;8.90;99.90
14182;DHT22;7171;50.936;6.764;2023-02-13T08:14:20;8.90;99.90
14182;DHT22;7171;50.936;6.764;2023-02-13T08:16:47;8.90;99.90
14182;DHT22;7171;50.936;6.764;2023-02-13T08:19:14;8.90;99.90
14182;DHT22;7171;50.936;6.764;2023-02-13T08:21:41;9.00;99.90
14182;DHT22;7171;50.936;6.764;2023-02-13T08:24:09;8.90;99.90
14182;DHT22;7171;50.936;6.764;2023-02-13T08:26:36;8.90;99.90
14182;DHT22;7171;50.936;6.764;2023-02-13T08:29:03;9.00;99.90
14182;DHT22;7171;50.936;6.764;2023-02-13T08:31:30;9.10;99.90
14182;DHT22;7171;50.936;6.764;2023-02-13T08:33:57;9.10;99.90
14182;DHT22;7171;50.936;6.764;2023-02-13T08:36:24;9.10;99.90
14182;DHT22;7171;50.936;6.764;2023-02-13T08:38:51;9.20;99.90
14182;DHT22;7171;50.936;6.764;2023-02-13T08:41:19;9.20;99.90
14182;DHT22;7171;50.936;6.764;2023-02-13T08:43:46;9.20;99.90
14182;DHT22;7171;50.936;6.764;2023-02-13T08:46:13;9.30;99.90
14182;DHT22;7171;50.936;6.764;2023-02-13T08:48:40;9.30;99.90
14182;DHT22;7171;50.936;6.764;2023-02-13T08:51:08;9.30;99.90
14182;DHT22;7171;50.936;6.764;2023-02-13T08:53:36;9.40;99.90
14182;DHT22;7171;50.936;6.764;2023-02-13T08:56:03;9.40;99.90
14182;DHT22;7171;50.936;6.764;2023-02-13T08:58:31;9.50;99.90
14182;DHT22;7171;50.936;6.764;2023-02-13T09:00:58;9.50;99.90
14182;DHT22;7171;50.936;6.764;2023-02-13T09:03:25;9.60;99.90
14182;DHT22;7171;50.936;6.764;2023-02-13T09:05:52;9.60;99.90
14182;DHT22;7171;50.936;6.764;2023-02-13T09:08:19;9.70;99.90
14182;DHT22;7171;50.936;6.764;2023-02-13T09:10:45;9.70;99.90
14182;DHT22;7171;50.936;6.764;2023-02-13T09:13:12;9.80;99.90
14182;DHT22;7171;50.936;6.764;2023-02-13T09:15:40;9.80;99.90
14182;DHT22;7171;50.936;6.764;2023-02-13T09:18:07;9.90;99.90
14182;DHT22;7171;50.936;6.764;2023-02-13T09:20:34;9.90;99.90
14182;DHT22;7171;50.936;6.764;2023-02-13T09:23:02;9.90;99.90
14182;DHT22;7171;50.936;6.764;2023-02-13T09:25:29;10.00;99.90
14182;DHT22;7171;50.936;6.764;2023-02-13T09:27:58;10.10;99.90
14182;DHT22;7171;50.936;6.764;2023-02-13T09:30:25;10.10;99.90
14182;DHT22;7171;50.936;6.764;2023-02-13T09:32:53;10.20;99.90
14182;DHT22;7171;50.936;6.764;2023-02-13T09:35:21;10.10;99.90
14182;DHT22;7171;50.936;6.764;2023-02-13T09:37:48;10.20;99.90
14182;DHT22;7171;50.936;6.764;2023-02-13T09:40:18;10.20;99.90
14182;DHT22;7171;50.936;6.764;2023-02-13T09:42:47;10.20;99.90
14182;DHT22;7171;50.936;6.764;2023-02-13T09:45:16;10.20;99.90
14182;DHT22;7171;50.936;6.764;2023-02-13T09:47:44;10.30;99.90
14182;DHT22;7171;50.936;6.764;2023-02-13T09:50:17;10.30;99.90
14182;DHT22;7171;50.936;6.764;2023-02-13T09:52:48;10.30;99.90
14182;DHT22;7171;50.936;6.764;2023-02-13T09:55:17;10.40;99.90
14182;DHT22;7171;50.936;6.764;2023-02-13T09:57:50;10.50;99.90
14182;DHT22;7171;50.936;6.764;2023-02-13T10:00:21;10.50;99.90
14182;DHT22;7171;50.936;6.764;2023-02-13T10:03:11;10.60;99.90
14182;DHT22;7171;50.936;6.764;2023-02-13T10:05:49;10.60;99.90
14182;DHT22;7171;50.936;6.764;2023-02-13T10:08:29;10.70;99.90
14182;DHT22;7171;50.936;6.764;2023-02-13T10:11:05;10.90;99.90
14182;DHT22;7171;50.936;6.764;2023-02-13T10:13:51;10.80;99.90
14182;DHT22;7171;50.936;6.764;2023-02-13T10:16:21;10.90;99.90
14182;DHT22;7171;50.936;6.764;2023-02-13T10:18:51;11.00;99.90
14182;DHT22;7171;50.936;6.764;2023-02-13T10:21:22;11.00;99.90
14182;DHT22;7171;50.936;6.764;2023-02-13T10:23:55;11.10;99.90
14182;DHT22;7171;50.936;6.764;2023-02-13T10:26:24;11.20;99.90
14182;DHT22;7171;50.936;6.764;2023-02-13T10:29:11;11.30;99.90
14182;DHT22;7171;50.936;6.764;2023-02-13T10:31:58;11.40;99.90
14182;DHT22;7171;50.936;6.764;2023-02-13T10:34:32;11.40;99.90
14182;DHT22;7171;50.936;6.764;2023-02-13T10:37:01;11.50;99.90
14182;DHT22;7171;50.936;6.764;2023-02-13T10:39:30;11.50;99.90
14182;DHT22;7171;50.936;6.764;2023-02-13T10:42:05;11.60;99.90
14182;DHT22;7171;50.936;6.764;2023-02-13T10:44:45;11.70;99.90
14182;DHT22;7171;50.936;6.764;2023-02-13T10:47:28;11.70;99.90
14182;DHT22;7171;50.936;6.764;2023-02-13T10:50:04;11.80;99.90
14182;DHT22;7171;50.936;6.764;2023-02-13T10:52:46;11.90;99.90
14182;DHT22;7171;50.936;6.764;2023-02-13T10:58:12;11.90;99.90
14182;DHT22;7171;50.936;6.764;2023-02-13T11:00:46;12.00;99.90
14182;DHT22;7171;50.936;6.764;2023-02-13T11:03:17;12.00;99.90
14182;DHT22;7171;50.936;6.764;2023-02-13T11:05:44;12.10;99.90
14182;DHT22;7171;50.936;6.764;2023-02-13T11:08:17;12.00;99.90
14182;DHT22;7171;50.936;6.764;2023-02-13T11:10:45;12.10;99.90
14182;DHT22;7171;50.936;6.764;2023-02-13T11:13:17;12.10;99.90
14182;DHT22;7171;50.936;6.764;2023-02-13T11:15:59;12.10;99.90
14182;DHT22;7171;50.936;6.764;2023-02-13T11:18:28;12.10;99.90
14182;DHT22;7171;50.936;6.764;2023-02-13T11:21:00;12.20;99.90
14182;DHT22;7171;50.936;6.764;2023-02-13T11:23:41;12.20;99.90
14182;DHT22;7171;50.936;6.764;2023-02-13T11:26:11;12.20;99.90
14182;DHT22;7171;50.936;6.764;2023-02-13T11:28:47;12.20;99.90
14182;DHT22;7171;50.936;6.764;2023-02-13T11:31:22;12.30;99.90
14182;DHT22;7171;50.936;6.764;2023-02-13T11:33:49;12.30;99.90
14182;DHT22;7171;50.936;6.764;2023-02-13T11:36:21;12.30;99.90
14182;DHT22;7171;50.936;6.764;2023-02-13T11:38:56;12.40;99.90
14182;DHT22;7171;50.936;6.764;2023-02-13T11:41:25;12.40;99.90
14182;DHT22;7171;50.936;6.764;2023-02-13T11:43:54;12.40;99.90
14182;DHT22;7171;50.936;6.764;2023-02-13T11:46:27;12.40;99.90
14182;DHT22;7171;50.936;6.764;2023-02-13T11:48:59;12.50;99.90
14182;DHT22;7171;50.936;6.764;2023-02-13T11:51:42;12.50;99.90
14182;DHT22;7171;50.936;6.764;2023-02-13T11:54:31;12.60;99.90
14182;DHT22;7171;50.936;6.764;2023-02-13T11:57:00;12.60;99.90
14182;DHT22;7171;50.936;6.764;2023-02-13T11:59:31;12.60;99.90
14182;DHT22;7171;50.936;6.764;2023-02-13T12:02:07;12.70;99.90
14182;DHT22;7171;50.936;6.764;2023-02-13T12:04:37;12.70;99.90
14182;DHT22;7171;50.936;6.764;2023-02-13T12:07:12;12.80;99.90
14182;DHT22;7171;50.936;6.764;2023-02-13T12:09:43;12.80;99.90
14182;DHT22;7171;50.936;6.764;2023-02-13T12:12:16;12.90;99.90
14182;DHT22;7171;50.936;6.764;2023-02-13T12:14:44;12.90;99.90
14182;DHT22;7171;50.936;6.764;2023-02-13T12:17:13;12.90;99.90
14182;DHT22;7171;50.936;6.764;2023-02-13T12:19:42;13.00;99.90
14182;DHT22;7171;50.936;6.764;2023-02-13T12:22:28;13.00;99.90
14182;DHT22;7171;50.936;6.764;2023-02-13T12:25:34;13.10;99.90
14182;DHT22;7171;50.936;6.764;2023-02-13T12:28:15;13.10;99.90
14182;DHT22;7171;50.936;6.764;2023-02-13T12:31:07;13.20;99.90
14182;DHT22;7171;50.936;6.764;2023-02-13T12:33:57;13.20;99.90
14182;DHT22;7171;50.936;6.764;2023-02-13T12:36:32;13.20;99.90
14182;DHT22;7171;50.936;6.764;2023-02-13T12:39:16;13.30;99.90
14182;DHT22;7171;50.936;6.764;2023-02-13T12:41:50;13.40;99.90
14182;DHT22;7171;50.936;6.764;2023-02-13T12:44:46;13.50;99.90
14182;DHT22;7171;50.936;6.764;2023-02-13T12:47:18;13.60;99.90
14182;DHT22;7171;50.936;6.764;2023-02-13T12:52:53;13.70;99.90
14182;DHT22;7171;50.936;6.764;2023-02-13T12:55:39;13.80;99.90
14182;DHT22;7171;50.936;6.764;2023-02-13T12:58:24;13.80;99.90
14182;DHT22;7171;50.936;6.764;2023-02-13T13:01:02;13.90;99.90
14182;DHT22;7171;50.936;6.764;2023-02-13T13:03:42;14.00;99.90
14182;DHT22;7171;50.936;6.764;2023-02-13T13:06:27;14.00;99.90
14182;DHT22;7171;50.936;6.764;2023-02-13T13:09:11;14.10;99.90
14182;DHT22;7171;50.936;6.764;2023-02-13T13:11:53;14.10;99.90
14182;DHT22;7171;50.936;6.764;2023-02-13T13:14:32;14.10;99.90
14182;DHT22;7171;50.936;6.764;2023-02-13T13:17:06;14.20;99.90
14182;DHT22;7171;50.936;6.764;2023-02-13T13:19:42;14.20;99.90
14182;DHT22;7171;50.936;6.764;2023-02-13T13:22:17;14.20;99.90
14182;DHT22;7171;50.936;6.764;2023-02-13T13:24:53;14.20;99.90
14182;DHT22;7171;50.936;6.764;2023-02-13T13:27:24;14.30;99.90
14182;DHT22;7171;50.936;6.764;2023-02-13T13:29:56;14.30;99.90
14182;DHT22;7171;50.936;6.764;2023-02-13T13:32:25;14.30;99.90
14182;DHT22;7171;50.936;6.764;2023-02-13T13:34:54;14.30;99.90
14182;DHT22;7171;50.936;6.764;2023-02-13T13:37:29;14.30;99.90
14182;DHT22;7171;50.936;6.764;2023-02-13T13:40:00;14.30;99.90
14182;DHT22;7171;50.936;6.764;2023-02-13T13:42:34;14.30;99.90
14182;DHT22;7171;50.936;6.764;2023-02-13T13:45:33;14.40;99.90
14182;DHT22;7171;50.936;6.764;2023-02-13T13:48:15;14.40;99.90
14182;DHT22;7171;50.936;6.764;2023-02-13T13:50:43;14.40;99.90
14182;DHT22;7171;50.936;6.764;2023-02-13T13:53:12;14.40;99.90
14182;DHT22;7171;50.936;6.764;2023-02-13T13:56:05;14.50;99.90
14182;DHT22;7171;50.936;6.764;2023-02-13T13:58:43;14.50;99.90
14182;DHT22;7171;50.936;6.764;2023-02-13T14:01:26;14.50;99.90
14182;DHT22;7171;50.936;6.764;2023-02-13T14:03:55;14.50;99.90
14182;DHT22;7171;50.936;6.764;2023-02-13T14:06:24;14.50;99.90
14182;DHT22;7171;50.936;6.764;2023-02-13T14:09:03;14.60;99.90
14182;DHT22;7171;50.936;6.764;2023-02-13T14:11:37;14.60;99.90
14182;DHT22;7171;50.936;6.764;2023-02-13T14:17:48;14.70;99.90
14182;DHT22;7171;50.936;6.764;2023-02-13T14:20:21;14.70;99.90
14182;DHT22;7171;50.936;6.764;2023-02-13T14:22:48;14.80;99.90
14182;DHT22;7171;50.936;6.764;2023-02-13T14:25:22;14.80;99.90
14182;DHT22;7171;50.936;6.764;2023-02-13T14:27:56;14.90;99.90
14182;DHT22;7171;50.936;6.764;2023-02-13T14:30:26;14.90;99.90
14182;DHT22;7171;50.936;6.764;2023-02-13T14:32:56;15.00;99.90
14182;DHT22;7171;50.936;6.764;2023-02-13T14:35:27;15.00;99.90
14182;DHT22;7171;50.936;6.764;2023-02-13T14:37:57;15.00;99.90
14182;DHT22;7171;50.936;6.764;2023-02-13T14:40:43;15.00;99.90
14182;DHT22;7171;50.936;6.764;2023-02-13T14:43:27;15.10;99.90
14182;DHT22;7171;50.936;6.764;2023-02-13T14:45:56;15.10;99.90
14182;DHT22;7171;50.936;6.764;2023-02-13T14:48:34;15.10;99.90
14182;DHT22;7171;50.936;6.764;2023-02-13T14:51:02;15.20;99.90
14182;DHT22;7171;50.936;6.764;2023-02-13T14:53:39;15.20;99.90
14182;DHT22;7171;50.936;6.764;2023-02-13T14:56:12;15.20;99.90
14182;DHT22;7171;50.936;6.764;2023-02-13T14:58:46;15.20;99.90
14182;DHT22;7171;50.936;6.764;2023-02-13T15:01:20;15.30;99.90
14182;DHT22;7171;50.936;6.764;2023-02-13T15:03:53;15.30;99.90
14182;DHT22;7171;50.936;6.764;2023-02-13T15:06:27;15.30;99.90
14182;DHT22;7171;50.936;6.764;2023-02-13T15:09:02;15.30;99.90
14182;DHT22;7171;50.936;6.764;2023-02-13T15:11:35;15.30;99.90
14182;DHT22;7171;50.936;6.764;2023-02-13T15:14:16;15.20;99.90
14182;DHT22;7171;50.936;6.764;2023-02-13T15:16:45;15.20;99.90
14182;DHT22;7171;50.936;6.764;2023-02-13T15:19:17;15.20;99.90
14182;DHT22;7171;50.936;6.764;2023-02-13T15:21:51;15.20;99.90
14182;DHT22;7171;50.936;6.764;2023-02-13T15:24:19;15.10;99.90
14182;DHT22;7171;50.936;6.764;2023-02-13T15:26:50;15.00;99.90
14182;DHT22;7171;50.936;6.764;2023-02-13T15:29:19;15.00;99.90
14182;DHT22;7171;50.936;6.764;2023-02-13T15:31:46;14.90;99.90
14182;DHT22;7171;50.936;6.764;2023-02-13T15:34:26;14.90;99.90
14182;DHT22;7171;50.936;6.764;2023-02-13T15:36:54;14.90;99.90
14182;DHT22;7171;50.936;6.764;2023-02-13T15:39:24;14.90;99.90
14182;DHT22;7171;50.936;6.764;2023-02-13T15:41:53;14.80;99.90
14182;DHT22;7171;50.936;6.764;2023-02-13T15:44:24;14.80;99.90
14182;DHT22;7171;50.936;6.764;2023-02-13T15:46:53;14.80;99.90
14182;DHT22;7171;50.936;6.764;2023-02-13T15:49:21;14.80;99.90
14182;DHT22;7171;50.936;6.764;2023-02-13T15:52:01;14.80;99.90
14182;DHT22;7171;50.936;6.764;2023-02-13T15:54:29;14.80;99.90
14182;DHT22;7171;50.936;6.764;2023-02-13T15:56:59;14.70;99.90
14182;DHT22;7171;50.936;6.764;2023-02-13T15:59:31;14.60;99.90
14182;DHT22;7171;50.936;6.764;2023-02-13T16:01:59;14.60;99.90
14182;DHT22;7171;50.936;6.764;2023-02-13T16:04:27;14.50;99.90
14182;DHT22;7171;50.936;6.764;2023-02-13T16:06:57;14.50;99.90
14182;DHT22;7171;50.936;6.764;2023-02-13T16:09:28;14.40;99.90
14182;DHT22;7171;50.936;6.764;2023-02-13T16:12:00;14.30;99.90
14182;DHT22;7171;50.936;6.764;2023-02-13T16:14:28;14.20;99.90
14182;DHT22;7171;50.936;6.764;2023-02-13T16:16:58;14.20;99.90
14182;DHT22;7171;50.936;6.764;2023-02-13T16:19:38;14.10;99.90
14182;DHT22;7171;50.936;6.764;2023-02-13T16:22:21;14.10;99.90
14182;DHT22;7171;50.936;6.764;2023-02-13T16:24:52;14.00;99.90
14182;DHT22;7171;50.936;6.764;2023-02-13T16:27:23;14.00;99.90
14182;DHT22;7171;50.936;6.764;2023-02-13T16:29:56;14.00;99.90